createdAt,value
2022-11-05T00:00:05.113Z,9.76
2022-11-05T00:01:05.105Z,9.74
2022-11-05T00:02:05.169Z,9.73
2022-11-05T00:03:05.077Z,9.73
2022-11-05T00:04:05.104Z,9.73
2022-11-05T00:05:05.043Z,9.72
2022-11-05T00:06:05.037Z,9.73
2022-11-05T00:07:05.034Z,9.70
2022-11-05T00:08:04.999Z,9.70
2022-11-05T00:09:04.996Z,9.69
2022-11-05T00:10:04.974Z,9.69
2022-11-05T00:11:04.964Z,9.69
2022-11-05T00:12:04.956Z,9.67
2022-11-05T00:13:04.935Z,9.67
2022-11-05T00:14:04.923Z,9.67
2022-11-05T00:15:04.907Z,9.69
2022-11-05T00:16:04.885Z,9.66
2022-11-05T00:17:04.886Z,9.67
2022-11-05T00:18:04.864Z,9.70
2022-11-05T00:19:04.855Z,9.66
2022-11-05T00:20:04.837Z,9.67
2022-11-05T00:21:04.825Z,9.67
2022-11-05T00:22:04.827Z,9.67
2022-11-05T00:23:04.807Z,9.67
2022-11-05T00:24:04.776Z,9.69
2022-11-05T00:25:04.902Z,9.70
2022-11-05T00:26:04.754Z,9.70
2022-11-05T00:27:04.765Z,9.70
2022-11-05T00:28:04.764Z,9.70
2022-11-05T00:29:04.724Z,9.70
2022-11-05T00:30:04.736Z,9.70
2022-11-05T00:31:04.698Z,9.70
2022-11-05T00:32:04.685Z,9.72
2022-11-05T00:33:04.674Z,9.73
2022-11-05T00:34:04.647Z,9.72
2022-11-05T00:35:04.664Z,9.72
2022-11-05T00:36:04.616Z,9.69
2022-11-05T00:37:04.636Z,9.69
2022-11-05T00:38:04.594Z,9.67
2022-11-05T00:39:04.584Z,9.67
2022-11-05T00:40:04.569Z,9.66
2022-11-05T00:41:04.559Z,9.64
2022-11-05T00:42:04.586Z,9.64
2022-11-05T00:43:04.526Z,9.62
2022-11-05T00:44:04.515Z,9.63
2022-11-05T00:45:04.509Z,9.58
2022-11-05T00:46:04.493Z,9.56
2022-11-05T00:47:04.526Z,9.58
2022-11-05T00:48:04.465Z,9.56
2022-11-05T00:49:04.442Z,9.56
2022-11-05T00:50:04.446Z,9.54
2022-11-05T00:51:04.426Z,9.55
2022-11-05T00:52:04.407Z,9.52
2022-11-05T00:53:04.403Z,9.54
2022-11-05T00:54:04.401Z,9.56
2022-11-05T00:55:04.365Z,9.56
2022-11-05T00:56:04.345Z,9.56
2022-11-05T00:57:04.919Z,9.54
2022-11-05T00:58:04.327Z,9.55
2022-11-05T00:59:04.366Z,9.54
2022-11-05T01:00:04.308Z,9.52
2022-11-05T01:01:04.276Z,9.54
2022-11-05T01:02:04.461Z,9.51
2022-11-05T01:03:04.255Z,9.51
2022-11-05T01:04:04.245Z,9.52
2022-11-05T01:05:04.236Z,9.52
2022-11-05T01:06:04.207Z,9.52
2022-11-05T01:07:04.224Z,9.51
2022-11-05T01:08:04.188Z,9.48
2022-11-05T01:09:04.164Z,9.45
2022-11-05T01:10:04.157Z,9.42
2022-11-05T01:11:04.195Z,9.37
2022-11-05T01:12:04.146Z,9.37
2022-11-05T01:13:07.541Z,9.40
2022-11-05T01:14:05.194Z,9.42
2022-11-05T01:15:04.086Z,9.39
2022-11-05T01:16:04.074Z,9.37
2022-11-05T01:17:04.086Z,9.39
2022-11-05T01:18:04.047Z,9.37
2022-11-05T01:19:04.049Z,9.36
2022-11-05T01:20:04.049Z,9.36
2022-11-05T01:21:04.015Z,9.37
2022-11-05T01:22:04.007Z,9.37
2022-11-05T01:23:06.446Z,9.39
2022-11-05T01:24:03.967Z,9.40
2022-11-05T01:25:03.959Z,9.40
2022-11-05T01:26:03.940Z,9.42
2022-11-05T01:27:03.949Z,9.42
2022-11-05T01:28:03.917Z,9.42
2022-11-05T01:29:03.974Z,9.44
2022-11-05T01:30:03.898Z,9.45
2022-11-05T01:31:03.874Z,9.44
2022-11-05T01:32:03.878Z,9.44
2022-11-05T01:33:03.855Z,9.44
2022-11-05T01:34:03.837Z,9.44
2022-11-05T01:35:03.828Z,9.42
2022-11-05T01:36:03.808Z,9.40
2022-11-05T01:37:03.818Z,9.40
2022-11-05T01:38:03.778Z,9.40
2022-11-05T01:39:03.769Z,9.42
2022-11-05T01:40:03.749Z,9.40
2022-11-05T01:41:03.745Z,9.39
2022-11-05T01:42:03.738Z,9.40
2022-11-05T01:43:03.717Z,9.40
2022-11-05T01:44:03.709Z,9.40
2022-11-05T01:45:03.703Z,9.42
2022-11-05T01:46:03.677Z,9.42
2022-11-05T01:47:03.676Z,9.42
2022-11-05T01:48:03.643Z,9.42
2022-11-05T01:49:03.667Z,9.37
2022-11-05T01:50:03.615Z,9.39
2022-11-05T01:51:03.617Z,9.37
2022-11-05T01:52:03.610Z,9.36
2022-11-05T01:53:03.617Z,9.37
2022-11-05T01:54:03.559Z,9.37
2022-11-05T01:55:03.548Z,9.37
2022-11-05T01:56:03.527Z,9.30
2022-11-05T01:57:03.538Z,9.30
2022-11-05T01:58:03.506Z,9.29
2022-11-05T01:59:03.496Z,9.22
2022-11-05T02:00:03.481Z,9.22
2022-11-05T02:01:03.470Z,9.24
2022-11-05T02:02:03.547Z,9.24
2022-11-05T02:03:03.501Z,9.24
2022-11-05T02:04:03.434Z,9.22
2022-11-05T02:05:03.436Z,9.24
2022-11-05T02:06:03.399Z,9.26
2022-11-05T02:07:03.397Z,9.27
2022-11-05T02:08:03.368Z,9.24
2022-11-05T02:09:03.365Z,9.19
2022-11-05T02:10:03.357Z,9.16
2022-11-05T02:11:03.328Z,9.13
2022-11-05T02:12:03.328Z,9.12
2022-11-05T02:13:03.304Z,9.11
2022-11-05T02:14:03.286Z,9.09
2022-11-05T02:15:03.277Z,9.09
2022-11-05T02:16:03.257Z,9.12
2022-11-05T02:17:03.275Z,9.11
2022-11-05T02:18:03.226Z,9.12
2022-11-05T02:19:03.226Z,9.11
2022-11-05T02:20:03.217Z,9.08
2022-11-05T02:21:03.198Z,9.09
2022-11-05T02:22:03.264Z,9.09
2022-11-05T02:23:03.165Z,9.05
2022-11-05T02:24:03.157Z,9.02
2022-11-05T02:25:03.175Z,9.03
2022-11-05T02:26:03.126Z,9.00
2022-11-05T02:27:03.126Z,9.00
2022-11-05T02:28:03.078Z,9.00
2022-11-05T02:29:03.126Z,9.00
2022-11-05T02:30:03.067Z,9.02
2022-11-05T02:31:03.054Z,9.03
2022-11-05T02:32:03.066Z,9.03
2022-11-05T02:33:03.016Z,9.00
2022-11-05T02:34:03.067Z,9.00
2022-11-05T02:35:03.007Z,9.00
2022-11-05T02:36:02.987Z,9.02
2022-11-05T02:37:02.996Z,9.03
2022-11-05T02:38:02.970Z,9.03
2022-11-05T02:39:02.947Z,9.05
2022-11-05T02:40:02.942Z,9.05
2022-11-05T02:41:02.932Z,9.05
2022-11-05T02:42:05.160Z,9.08
2022-11-05T02:43:02.897Z,9.08
2022-11-05T02:44:02.887Z,9.09
2022-11-05T02:45:02.867Z,9.08
2022-11-05T02:46:02.859Z,9.08
2022-11-05T02:47:02.866Z,9.02
2022-11-05T02:48:02.828Z,9.02
2022-11-05T02:49:02.818Z,9.02
2022-11-05T02:50:02.819Z,9.00
2022-11-05T02:51:02.789Z,8.99
2022-11-05T02:52:02.778Z,8.97
2022-11-05T02:53:02.781Z,8.95
2022-11-05T02:54:02.748Z,8.93
2022-11-05T02:55:02.738Z,8.90
2022-11-05T02:56:02.728Z,8.86
2022-11-05T02:57:02.707Z,8.84
2022-11-05T02:58:02.718Z,8.82
2022-11-05T02:59:02.680Z,8.81
2022-11-05T03:00:02.667Z,8.82
2022-11-05T03:01:02.646Z,8.79
2022-11-05T03:02:02.760Z,8.78
2022-11-05T03:03:02.791Z,8.78
2022-11-05T03:04:02.617Z,8.77
2022-11-05T03:05:02.597Z,8.74
2022-11-05T03:06:02.588Z,8.74
2022-11-05T03:07:02.567Z,8.75
2022-11-05T03:08:02.576Z,8.75
2022-11-05T03:09:02.549Z,8.72
2022-11-05T03:10:02.557Z,8.72
2022-11-05T03:11:02.516Z,8.72
2022-11-05T03:12:02.507Z,8.71
2022-11-05T03:13:02.509Z,8.66
2022-11-05T03:14:02.477Z,8.68
2022-11-05T03:15:02.470Z,8.66
2022-11-05T03:16:02.463Z,8.68
2022-11-05T03:17:02.438Z,8.66
2022-11-05T03:18:02.448Z,8.68
2022-11-05T03:19:02.407Z,8.66
2022-11-05T03:20:02.399Z,8.66
2022-11-05T03:21:02.386Z,8.68
2022-11-05T03:22:02.378Z,8.66
2022-11-05T03:23:02.377Z,8.66
2022-11-05T03:24:02.347Z,8.66
2022-11-05T03:25:02.329Z,8.64
2022-11-05T03:26:02.320Z,8.66
2022-11-05T03:27:02.312Z,8.64
2022-11-05T03:28:02.308Z,8.66
2022-11-05T03:29:02.275Z,8.64
2022-11-05T03:30:02.277Z,8.64
2022-11-05T03:31:02.253Z,8.66
2022-11-05T03:32:02.250Z,8.68
2022-11-05T03:33:02.245Z,8.69
2022-11-05T03:34:02.208Z,8.72
2022-11-05T03:35:02.195Z,8.72
2022-11-05T03:36:02.177Z,8.71
2022-11-05T03:37:02.167Z,8.69
2022-11-05T03:38:02.178Z,8.64
2022-11-05T03:39:02.151Z,8.68
2022-11-05T03:40:02.159Z,8.68
2022-11-05T03:41:02.107Z,8.68
2022-11-05T03:42:02.108Z,8.69
2022-11-05T03:43:02.107Z,8.71
2022-11-05T03:44:02.078Z,8.68
2022-11-05T03:45:02.057Z,8.64
2022-11-05T03:46:02.047Z,8.64
2022-11-05T03:47:02.027Z,8.63
2022-11-05T03:48:02.042Z,8.63
2022-11-05T03:49:02.110Z,8.64
2022-11-05T03:50:02.012Z,8.69
2022-11-05T03:51:01.984Z,8.71
2022-11-05T03:52:01.970Z,8.71
2022-11-05T03:53:01.968Z,8.69
2022-11-05T03:54:01.938Z,8.69
2022-11-05T03:55:01.933Z,8.64
2022-11-05T03:56:01.918Z,8.64
2022-11-05T03:57:01.902Z,8.66
2022-11-05T03:58:01.909Z,8.69
2022-11-05T03:59:01.867Z,8.71
2022-11-05T04:00:01.858Z,8.74
2022-11-05T04:01:01.954Z,8.72
2022-11-05T04:02:01.905Z,8.71
2022-11-05T04:03:01.893Z,8.74
2022-11-05T04:04:01.808Z,8.75
2022-11-05T04:05:01.788Z,8.78
2022-11-05T04:06:01.779Z,8.75
2022-11-05T04:07:01.767Z,8.79
2022-11-05T04:08:01.767Z,8.81
2022-11-05T04:09:01.740Z,8.84
2022-11-05T04:10:01.721Z,8.84
2022-11-05T04:11:01.710Z,8.86
2022-11-05T04:12:01.697Z,8.87
2022-11-05T04:13:01.708Z,8.87
2022-11-05T04:14:01.669Z,8.89
2022-11-05T04:15:01.660Z,8.92
2022-11-05T04:16:01.646Z,8.93
2022-11-05T04:17:01.629Z,8.96
2022-11-05T04:18:01.637Z,8.93
2022-11-05T04:19:01.607Z,8.95
2022-11-05T04:20:01.602Z,8.96
2022-11-05T04:21:01.578Z,8.95
2022-11-05T04:22:01.565Z,8.96
2022-11-05T04:23:01.659Z,8.95
2022-11-05T04:24:01.528Z,8.95
2022-11-05T04:25:01.529Z,8.95
2022-11-05T04:26:01.509Z,8.96
2022-11-05T04:27:01.498Z,8.96
2022-11-05T04:28:01.495Z,8.97
2022-11-05T04:29:06.845Z,8.96
2022-11-05T04:30:02.447Z,8.96
2022-11-05T04:31:01.438Z,8.95
2022-11-05T04:32:01.427Z,8.93
2022-11-05T04:33:01.439Z,8.95
2022-11-05T04:34:01.410Z,8.95
2022-11-05T04:35:01.396Z,8.95
2022-11-05T04:36:01.378Z,8.96
2022-11-05T04:37:01.358Z,9.00
2022-11-05T04:38:01.373Z,8.99
2022-11-05T04:39:01.339Z,9.03
2022-11-05T04:40:01.330Z,9.08
2022-11-05T04:41:01.308Z,9.09
2022-11-05T04:42:01.297Z,9.09
2022-11-05T04:43:01.297Z,9.11
2022-11-05T04:44:01.267Z,9.12
2022-11-05T04:45:01.265Z,9.13
2022-11-05T04:46:01.236Z,9.16
2022-11-05T04:47:01.230Z,9.18
2022-11-05T04:48:01.228Z,9.19
2022-11-05T04:49:01.201Z,9.19
2022-11-05T04:50:01.188Z,9.18
2022-11-05T04:51:01.179Z,9.18
2022-11-05T04:52:01.157Z,9.18
2022-11-05T04:53:01.180Z,9.12
2022-11-05T04:54:01.149Z,9.11
2022-11-05T04:55:01.117Z,9.09
2022-11-05T04:56:01.100Z,9.09
2022-11-05T04:57:01.089Z,9.11
2022-11-05T04:58:01.075Z,9.12
2022-11-05T04:59:01.089Z,9.11
2022-11-05T05:00:01.056Z,9.08
2022-11-05T05:01:01.098Z,9.08
2022-11-05T05:02:01.120Z,9.08
2022-11-05T05:03:01.018Z,9.08
2022-11-05T05:04:01.023Z,9.03
2022-11-05T05:05:00.989Z,9.03
2022-11-05T05:06:03.924Z,9.02
2022-11-05T05:07:00.960Z,9.02
2022-11-05T05:08:00.959Z,9.00
2022-11-05T05:09:00.942Z,8.96
2022-11-05T05:10:00.889Z,8.96
2022-11-05T05:11:00.929Z,8.95
2022-11-05T05:12:00.891Z,8.92
2022-11-05T05:13:00.897Z,8.92
2022-11-05T05:14:00.859Z,8.90
2022-11-05T05:15:00.858Z,8.87
2022-11-05T05:16:00.830Z,8.86
2022-11-05T05:17:00.828Z,8.82
2022-11-05T05:18:00.828Z,8.77
2022-11-05T05:19:00.796Z,8.74
2022-11-05T05:20:00.787Z,8.69
2022-11-05T05:21:00.759Z,8.64
2022-11-05T05:22:00.749Z,8.61
2022-11-05T05:23:00.766Z,8.60
2022-11-05T05:24:00.719Z,8.57
2022-11-05T05:25:00.718Z,8.54
2022-11-05T05:26:00.701Z,8.50
2022-11-05T05:27:00.689Z,8.50
2022-11-05T05:28:00.690Z,8.45
2022-11-05T05:29:00.657Z,8.42
2022-11-05T05:30:00.648Z,8.41
2022-11-05T05:31:00.631Z,8.39
2022-11-05T05:32:00.621Z,8.36
2022-11-05T05:33:00.619Z,8.34
2022-11-05T05:34:00.580Z,8.34
2022-11-05T05:35:00.573Z,8.32
2022-11-05T05:36:00.549Z,8.28
2022-11-05T05:37:00.558Z,8.28
2022-11-05T05:38:00.531Z,8.28
2022-11-05T05:39:00.548Z,8.28
2022-11-05T05:40:00.499Z,8.31
2022-11-05T05:41:00.507Z,8.32
2022-11-05T05:42:00.479Z,8.31
2022-11-05T05:43:00.479Z,8.32
2022-11-05T05:44:00.470Z,8.36
2022-11-05T05:45:00.448Z,8.39
2022-11-05T05:46:00.427Z,8.38
2022-11-05T05:47:00.419Z,8.39
2022-11-05T05:48:00.399Z,8.41
2022-11-05T05:49:00.403Z,8.42
2022-11-05T05:50:00.376Z,8.45
2022-11-05T05:51:00.359Z,8.46
2022-11-05T05:52:00.339Z,8.49
2022-11-05T05:53:00.338Z,8.52
2022-11-05T05:54:00.344Z,8.53
2022-11-05T05:55:00.319Z,8.53
2022-11-05T05:56:00.291Z,8.50
2022-11-05T05:57:00.293Z,8.49
2022-11-05T05:58:00.260Z,8.50
2022-11-05T05:59:00.292Z,8.50
2022-11-05T06:00:00.241Z,8.49
2022-11-05T06:01:00.242Z,8.49
2022-11-05T06:02:00.367Z,8.53
2022-11-05T06:03:00.362Z,8.56
2022-11-05T06:04:00.210Z,8.57
2022-11-05T06:05:00.171Z,8.57
2022-11-05T06:06:00.160Z,8.60
2022-11-05T06:07:00.157Z,8.61
2022-11-05T06:08:00.131Z,8.66
2022-11-05T06:09:00.137Z,8.66
2022-11-05T06:10:00.102Z,8.68
2022-11-05T06:11:00.185Z,8.71
2022-11-05T06:12:00.068Z,8.71
2022-11-05T06:13:00.059Z,8.75
2022-11-05T06:14:00.058Z,8.72
2022-11-05T06:15:00.046Z,8.74
2022-11-05T06:16:00.027Z,8.72
2022-11-05T06:17:00.020Z,8.72
2022-11-05T06:17:59.991Z,8.69
2022-11-05T06:19:00.009Z,8.72
2022-11-05T06:19:59.971Z,8.74
2022-11-05T06:20:59.961Z,8.74
2022-11-05T06:21:59.942Z,8.72
2022-11-05T06:22:59.938Z,8.72
2022-11-05T06:23:59.933Z,8.74
2022-11-05T06:24:59.913Z,8.75
2022-11-05T06:25:59.891Z,8.74
2022-11-05T06:26:59.882Z,8.77
2022-11-05T06:27:59.860Z,8.77
2022-11-05T06:28:59.959Z,8.75
2022-11-05T06:29:59.832Z,8.77
2022-11-05T06:30:59.819Z,8.77
2022-11-05T06:31:59.816Z,8.77
2022-11-05T06:32:59.797Z,8.77
2022-11-05T06:33:59.791Z,8.77
2022-11-05T06:34:59.777Z,8.78
2022-11-05T06:35:59.750Z,8.77
2022-11-05T06:36:59.741Z,8.78
2022-11-05T06:37:59.719Z,8.81
2022-11-05T06:38:59.731Z,8.81
2022-11-05T06:39:59.706Z,8.81
2022-11-05T06:40:59.690Z,8.81
2022-11-05T06:43:00.666Z,8.87
2022-11-05T06:43:59.776Z,8.92
2022-11-05T06:44:59.664Z,8.95
2022-11-05T06:45:59.619Z,8.96
2022-11-05T06:46:59.606Z,8.99
2022-11-05T06:47:59.590Z,9.02
2022-11-05T06:48:59.590Z,9.03
2022-11-05T06:49:59.587Z,9.05
2022-11-05T06:50:59.562Z,9.09
2022-11-05T06:51:59.547Z,9.13
2022-11-05T06:52:59.520Z,9.18
2022-11-05T06:53:59.518Z,9.21
2022-11-05T06:54:59.518Z,9.22
2022-11-05T06:55:59.473Z,9.29
2022-11-05T06:56:59.470Z,9.30
2022-11-05T06:57:59.469Z,9.31
2022-11-05T06:58:59.440Z,9.33
2022-11-05T07:00:03.331Z,9.33
2022-11-05T07:01:00.476Z,9.34
2022-11-05T07:01:59.509Z,9.34
2022-11-05T07:02:59.401Z,9.36
2022-11-05T07:03:59.402Z,9.37
2022-11-05T07:04:59.379Z,9.40
2022-11-05T07:05:59.348Z,9.44
2022-11-05T07:06:59.347Z,9.45
2022-11-05T07:07:59.339Z,9.47
2022-11-05T07:08:59.319Z,9.48
2022-11-05T07:09:59.320Z,9.47
2022-11-05T07:10:59.289Z,9.47
2022-11-05T07:11:59.282Z,9.42
2022-11-05T07:13:02.512Z,9.42
2022-11-05T07:14:00.253Z,9.44
2022-11-05T07:14:59.310Z,9.44
2022-11-05T07:15:59.209Z,9.44
2022-11-05T07:16:59.225Z,9.44
2022-11-05T07:17:59.203Z,9.47
2022-11-05T07:18:59.178Z,9.48
2022-11-05T07:19:59.193Z,9.49
2022-11-05T07:20:59.170Z,9.51
2022-11-05T07:21:59.150Z,9.51
2022-11-05T07:22:59.121Z,9.48
2022-11-05T07:23:59.110Z,9.48
2022-11-05T07:24:59.117Z,9.48
2022-11-05T07:25:59.100Z,9.45
2022-11-05T07:26:59.101Z,9.45
2022-11-05T07:27:59.057Z,9.44
2022-11-05T07:28:59.051Z,9.47
2022-11-05T07:29:59.043Z,9.49
2022-11-05T07:30:59.029Z,9.51
2022-11-05T07:31:59.008Z,9.54
2022-11-05T07:32:59.017Z,9.55
2022-11-05T07:33:58.982Z,9.54
2022-11-05T07:34:58.989Z,9.54
2022-11-05T07:35:58.967Z,9.54
2022-11-05T07:36:58.934Z,9.55
2022-11-05T07:37:58.930Z,9.55
2022-11-05T07:39:00.520Z,9.58
2022-11-05T07:39:58.911Z,9.62
2022-11-05T07:40:58.893Z,9.66
2022-11-05T07:41:58.879Z,9.66
2022-11-05T07:42:58.850Z,9.66
2022-11-05T07:43:58.837Z,9.66
2022-11-05T07:44:58.874Z,9.64
2022-11-05T07:45:58.840Z,9.66
2022-11-05T07:46:58.799Z,9.64
2022-11-05T07:47:58.780Z,9.63
2022-11-05T07:48:58.779Z,9.63
2022-11-05T07:49:58.760Z,9.62
2022-11-05T07:50:58.758Z,9.63
2022-11-05T07:51:58.734Z,9.66
2022-11-05T07:52:58.720Z,9.64
2022-11-05T07:53:58.690Z,9.62
2022-11-05T07:54:58.690Z,9.63
2022-11-05T07:55:58.669Z,9.66
2022-11-05T07:56:58.660Z,9.66
2022-11-05T07:57:58.650Z,9.69
2022-11-05T07:58:58.658Z,9.72
2022-11-05T07:59:58.621Z,9.76
2022-11-05T08:00:58.773Z,9.77
2022-11-05T08:01:58.856Z,9.85
2022-11-05T08:03:09.361Z,9.87
2022-11-05T08:03:59.574Z,9.91
2022-11-05T08:04:58.562Z,9.95
2022-11-05T08:05:58.580Z,9.99
2022-11-05T08:06:58.549Z,10.03
2022-11-05T08:07:58.540Z,10.06
2022-11-05T08:08:58.521Z,10.10
2022-11-05T08:09:58.503Z,10.12
2022-11-05T08:10:58.532Z,10.15
2022-11-05T08:12:02.610Z,10.13
2022-11-05T08:12:58.490Z,10.10
2022-11-05T08:13:58.452Z,10.12
2022-11-05T08:14:58.423Z,10.10
2022-11-05T08:15:58.440Z,10.09
2022-11-05T08:16:58.399Z,10.10
2022-11-05T08:17:58.389Z,10.13
2022-11-05T08:18:58.372Z,10.21
2022-11-05T08:19:58.362Z,10.25
2022-11-05T08:20:58.360Z,10.30
2022-11-05T08:21:58.348Z,10.34
2022-11-05T08:22:58.332Z,10.39
2022-11-05T08:23:58.302Z,10.45
2022-11-05T08:25:01.470Z,10.45
2022-11-05T08:25:59.299Z,10.43
2022-11-05T08:26:58.261Z,10.45
2022-11-05T08:27:58.262Z,10.39
2022-11-05T08:28:58.232Z,10.42
2022-11-05T08:29:58.219Z,10.42
2022-11-05T08:30:58.220Z,10.27
2022-11-05T08:31:58.191Z,10.23
2022-11-05T08:32:58.180Z,10.21
2022-11-05T08:34:02.282Z,10.20
2022-11-05T08:34:58.149Z,10.18
2022-11-05T08:35:58.155Z,10.20
2022-11-05T08:36:58.119Z,10.18
2022-11-05T08:37:58.113Z,10.18
2022-11-05T08:38:58.091Z,10.12
2022-11-05T08:39:58.094Z,10.12
2022-11-05T08:40:58.093Z,10.10
2022-11-05T08:41:58.078Z,10.05
2022-11-05T08:42:58.041Z,10.06
2022-11-05T08:43:58.041Z,10.09
2022-11-05T08:44:58.011Z,10.10
2022-11-05T08:45:58.023Z,10.07
2022-11-05T08:46:57.990Z,10.10
2022-11-05T08:47:57.982Z,10.03
2022-11-05T08:48:57.973Z,9.99
2022-11-05T08:49:57.952Z,9.99
2022-11-05T08:50:58.053Z,9.99
2022-11-05T08:51:57.930Z,10.02
2022-11-05T08:52:57.912Z,10.03
2022-11-05T08:53:57.904Z,10.07
2022-11-05T08:54:57.861Z,10.13
2022-11-05T08:55:58.223Z,10.18
2022-11-05T08:56:57.884Z,10.24
2022-11-05T08:57:57.880Z,10.25
2022-11-05T08:58:57.862Z,10.21
2022-11-05T08:59:57.824Z,10.23
2022-11-05T09:01:03.418Z,10.24
2022-11-05T09:01:58.923Z,10.28
2022-11-05T09:02:57.791Z,10.36
2022-11-05T09:03:57.774Z,10.39
2022-11-05T09:04:57.750Z,10.48
2022-11-05T09:05:57.823Z,10.53
2022-11-05T09:06:57.741Z,10.61
2022-11-05T09:08:00.885Z,10.68
2022-11-05T09:08:57.702Z,10.76
2022-11-05T09:09:57.692Z,10.82
2022-11-05T09:10:57.716Z,10.90
2022-11-05T09:12:11.642Z,10.95
2022-11-05T09:12:58.695Z,10.95
2022-11-05T09:13:57.640Z,10.94
2022-11-05T09:14:57.625Z,10.87
2022-11-05T09:15:57.653Z,10.83
2022-11-05T09:16:57.612Z,10.75
2022-11-05T09:17:57.583Z,10.68
2022-11-05T09:18:57.573Z,10.65
2022-11-05T09:19:57.561Z,10.64
2022-11-05T09:20:57.541Z,10.61
2022-11-05T09:21:57.553Z,10.53
2022-11-05T09:22:57.522Z,10.51
2022-11-05T09:23:57.509Z,10.49
2022-11-05T09:24:57.497Z,10.49
2022-11-05T09:25:57.488Z,10.41
2022-11-05T09:26:57.495Z,10.34
2022-11-05T09:27:57.452Z,10.31
2022-11-05T09:28:57.434Z,10.31
2022-11-05T09:29:57.422Z,10.36
2022-11-05T09:30:57.423Z,10.38
2022-11-05T09:31:57.441Z,10.39
2022-11-05T09:32:57.403Z,10.30
2022-11-05T09:33:57.383Z,10.25
2022-11-05T09:34:57.402Z,10.27
2022-11-05T09:35:57.363Z,10.33
2022-11-05T09:36:57.404Z,10.36
2022-11-05T09:38:00.903Z,10.41
2022-11-05T09:38:57.315Z,10.49
2022-11-05T09:39:57.303Z,10.58
2022-11-05T09:40:57.254Z,10.59
2022-11-05T09:41:57.315Z,10.62
2022-11-05T09:42:57.253Z,10.68
2022-11-05T09:43:57.233Z,10.76
2022-11-05T09:44:57.250Z,10.79
2022-11-05T09:45:57.213Z,10.82
2022-11-05T09:46:57.254Z,10.82
2022-11-05T09:47:57.204Z,10.82
2022-11-05T09:48:57.173Z,10.79
2022-11-05T09:49:57.162Z,10.80
2022-11-05T09:50:57.156Z,10.80
2022-11-05T09:51:57.162Z,10.76
2022-11-05T09:52:57.112Z,10.75
2022-11-05T09:53:57.113Z,10.72
2022-11-05T09:54:57.092Z,10.75
2022-11-05T09:55:57.103Z,10.72
2022-11-05T09:56:57.084Z,10.71
2022-11-05T09:57:57.096Z,10.71
2022-11-05T09:58:57.038Z,10.68
2022-11-05T09:59:57.047Z,10.71
2022-11-05T10:00:57.167Z,10.72
2022-11-05T10:01:57.145Z,10.76
2022-11-05T10:02:56.982Z,10.86
2022-11-05T10:03:56.973Z,10.89
2022-11-05T10:04:56.983Z,10.92
2022-11-05T10:05:56.981Z,11.01
2022-11-05T10:06:56.943Z,11.12
2022-11-05T10:07:56.914Z,11.22
2022-11-05T10:08:56.907Z,11.30
2022-11-05T10:09:56.894Z,11.35
2022-11-05T10:10:56.946Z,11.41
2022-11-05T10:11:56.893Z,11.44
2022-11-05T10:12:56.877Z,11.52
2022-11-05T10:13:56.825Z,11.60
2022-11-05T10:14:56.822Z,11.63
2022-11-05T10:15:56.813Z,11.74
2022-11-05T10:16:56.820Z,11.81
2022-11-05T10:17:56.785Z,11.99
2022-11-05T10:18:56.764Z,12.05
2022-11-05T10:19:56.753Z,12.10
2022-11-05T10:20:56.734Z,12.18
2022-11-05T10:22:12.235Z,12.21
2022-11-05T10:22:57.715Z,12.25
2022-11-05T10:23:56.704Z,12.28
2022-11-05T10:24:56.694Z,12.40
2022-11-05T10:25:56.675Z,12.61
2022-11-05T10:26:56.694Z,12.81
2022-11-05T10:27:56.665Z,13.13
2022-11-05T10:28:56.632Z,13.40
2022-11-05T10:29:56.625Z,13.46
2022-11-05T10:30:56.615Z,13.50
2022-11-05T10:31:56.615Z,13.54
2022-11-05T10:32:56.575Z,13.58
2022-11-05T10:33:56.574Z,13.64
2022-11-05T10:34:56.545Z,13.60
2022-11-05T10:35:56.565Z,13.57
2022-11-05T10:36:56.545Z,13.49
2022-11-05T10:37:56.525Z,13.33
2022-11-05T10:38:56.503Z,13.26
2022-11-05T10:39:56.496Z,13.09
2022-11-05T10:40:56.476Z,12.90
2022-11-05T10:41:56.504Z,12.69
2022-11-05T10:42:56.455Z,12.50
2022-11-05T10:43:56.466Z,12.39
2022-11-05T10:44:56.423Z,12.17
2022-11-05T10:45:56.425Z,11.97
2022-11-05T10:46:56.396Z,11.80
2022-11-05T10:47:56.413Z,11.68
2022-11-05T10:48:56.367Z,11.58
2022-11-05T10:49:56.367Z,11.49
2022-11-05T10:50:56.356Z,11.43
2022-11-05T10:51:56.338Z,11.35
2022-11-05T10:52:56.348Z,11.25
2022-11-05T10:54:01.709Z,11.16
2022-11-05T10:54:57.298Z,11.10
2022-11-05T10:55:56.302Z,11.12
2022-11-05T10:56:56.266Z,11.12
2022-11-05T10:57:56.296Z,11.05
2022-11-05T10:58:56.227Z,11.08
2022-11-05T10:59:56.237Z,11.08
2022-11-05T11:00:56.300Z,11.08
2022-11-05T11:01:56.398Z,11.08
2022-11-05T11:02:56.216Z,11.02
2022-11-05T11:03:56.207Z,11.02
2022-11-05T11:04:56.157Z,11.00
2022-11-05T11:05:56.155Z,11.01
2022-11-05T11:06:56.146Z,11.00
2022-11-05T11:07:56.148Z,11.00
2022-11-05T11:08:56.107Z,11.01
2022-11-05T11:09:56.108Z,11.07
2022-11-05T11:10:56.066Z,11.13
2022-11-05T11:11:56.076Z,11.10
2022-11-05T11:12:56.085Z,11.10
2022-11-05T11:13:56.057Z,11.12
2022-11-05T11:14:56.034Z,11.12
2022-11-05T11:15:56.027Z,11.23
2022-11-05T11:16:56.018Z,11.40
2022-11-05T11:17:56.068Z,11.55
2022-11-05T11:18:55.978Z,11.67
2022-11-05T11:19:55.968Z,11.78
2022-11-05T11:20:55.957Z,11.97
2022-11-05T11:21:55.946Z,12.10
2022-11-05T11:22:55.948Z,12.20
2022-11-05T11:23:55.914Z,12.32
2022-11-05T11:24:55.900Z,12.33
2022-11-05T11:25:55.888Z,12.26
2022-11-05T11:26:55.870Z,12.32
2022-11-05T11:27:55.886Z,12.30
2022-11-05T11:28:56.090Z,12.33
2022-11-05T11:29:55.852Z,12.37
2022-11-05T11:30:55.820Z,12.32
2022-11-05T11:31:55.838Z,12.32
2022-11-05T11:32:55.821Z,12.40
2022-11-05T11:33:55.792Z,12.53
2022-11-05T11:34:55.769Z,12.54
2022-11-05T11:35:55.769Z,12.47
2022-11-05T11:36:55.748Z,12.44
2022-11-05T11:37:55.756Z,12.48
2022-11-05T11:38:55.719Z,12.47
2022-11-05T11:39:55.731Z,12.55
2022-11-05T11:40:55.689Z,12.54
2022-11-05T11:41:55.678Z,12.54
2022-11-05T11:42:55.690Z,12.69
2022-11-05T11:43:55.657Z,12.83
2022-11-05T11:44:55.634Z,12.94
2022-11-05T11:45:59.360Z,13.05
2022-11-05T11:46:56.608Z,13.13
2022-11-05T11:47:55.609Z,13.05
2022-11-05T11:48:55.578Z,13.01
2022-11-05T11:49:55.579Z,13.05
2022-11-05T11:50:55.550Z,13.08
2022-11-05T11:51:55.559Z,13.02
2022-11-05T11:52:55.560Z,12.84
2022-11-05T11:53:55.526Z,12.66
2022-11-05T11:54:55.512Z,12.50
2022-11-05T11:55:55.499Z,12.30
2022-11-05T11:56:55.547Z,12.15
2022-11-05T11:57:55.501Z,12.11
2022-11-05T11:58:55.459Z,12.11
2022-11-05T12:00:08.244Z,12.03
2022-11-05T12:00:56.429Z,12.03
2022-11-05T12:01:55.559Z,12.03
2022-11-05T12:03:00.550Z,12.08
2022-11-05T12:03:56.408Z,12.10
2022-11-05T12:04:55.372Z,12.12
2022-11-05T12:05:55.368Z,12.12
2022-11-05T12:06:55.350Z,12.14
2022-11-05T12:07:55.341Z,12.17
2022-11-05T12:09:03.424Z,12.18
2022-11-05T12:09:56.340Z,12.20
2022-11-05T12:10:55.304Z,12.18
2022-11-05T12:11:55.295Z,12.17
2022-11-05T12:12:55.272Z,12.17
2022-11-05T12:13:55.281Z,12.17
2022-11-05T12:14:55.232Z,12.15
2022-11-05T12:15:55.234Z,12.14
2022-11-05T12:16:55.211Z,12.14
2022-11-05T12:17:55.208Z,12.12
2022-11-05T12:18:55.226Z,12.12
2022-11-05T12:19:55.195Z,12.12
2022-11-05T12:20:58.125Z,12.11
2022-11-05T12:21:55.158Z,12.08
2022-11-05T12:22:55.130Z,12.07
2022-11-05T12:23:55.149Z,12.07
2022-11-05T12:24:55.111Z,12.03
2022-11-05T12:25:55.109Z,11.97
2022-11-05T12:26:55.080Z,11.95
2022-11-05T12:27:55.072Z,11.89
2022-11-05T12:29:17.280Z,11.81
2022-11-05T12:29:56.043Z,11.76
2022-11-05T12:30:55.032Z,11.67
2022-11-05T12:31:55.010Z,11.60
2022-11-05T12:32:55.052Z,11.59
2022-11-05T12:33:55.001Z,11.59
2022-11-05T12:34:54.982Z,11.62
2022-11-05T12:35:57.905Z,11.63
2022-11-05T12:36:54.952Z,11.62
2022-11-05T12:37:54.942Z,11.63
2022-11-05T12:38:54.941Z,11.67
2022-11-05T12:39:54.921Z,11.68
2022-11-05T12:40:54.912Z,11.65
2022-11-05T12:41:54.880Z,11.65
2022-11-05T12:42:54.871Z,11.65
2022-11-05T12:43:54.882Z,11.73
2022-11-05T12:44:54.852Z,11.78
2022-11-05T12:45:54.830Z,11.81
2022-11-05T12:46:54.841Z,11.85
2022-11-05T12:47:54.820Z,11.93
2022-11-05T12:48:54.821Z,11.93
2022-11-05T12:49:54.782Z,11.96
2022-11-05T12:50:54.772Z,11.97
2022-11-05T12:51:54.753Z,12.05
2022-11-05T12:52:54.743Z,12.11
2022-11-05T12:53:54.740Z,12.14
2022-11-05T12:54:54.721Z,12.15
2022-11-05T12:55:54.703Z,12.20
2022-11-05T12:56:54.692Z,12.21
2022-11-05T12:57:54.664Z,12.20
2022-11-05T12:58:54.684Z,12.18
2022-11-05T12:59:54.657Z,12.18
2022-11-05T13:00:54.693Z,12.15
2022-11-05T13:01:54.766Z,12.12
2022-11-05T13:02:54.612Z,12.11
2022-11-05T13:03:54.621Z,12.10
2022-11-05T13:04:54.586Z,12.10
2022-11-05T13:05:54.574Z,12.11
2022-11-05T13:06:54.552Z,12.11
2022-11-05T13:07:54.542Z,12.10
2022-11-05T13:08:54.549Z,12.14